createdAt,value
2023-04-22T00:00:04.347Z,1.60
2023-04-22T00:00:15.127Z,1.70
2023-04-22T00:00:26.161Z,1.70
2023-04-22T00:00:37.188Z,1.60
2023-04-22T00:00:47.970Z,1.70
2023-04-22T00:00:59.004Z,1.60
2023-04-22T00:01:09.971Z,1.70
2023-04-22T00:01:20.741Z,1.60
2023-04-22T00:01:31.823Z,1.60
2023-04-22T00:01:42.772Z,1.70
2023-04-22T00:01:53.540Z,1.80
2023-04-22T00:02:04.722Z,1.50
2023-04-22T00:02:15.171Z,1.50
2023-04-22T00:02:25.976Z,1.50
2023-04-22T00:02:37.095Z,1.60
2023-04-22T00:02:47.707Z,1.50
2023-04-22T00:02:58.561Z,1.40
2023-04-22T00:03:09.265Z,1.50
2023-04-22T00:03:19.899Z,1.60
2023-04-22T00:03:30.839Z,1.80
2023-04-22T00:03:41.615Z,1.80
2023-04-22T00:03:52.417Z,1.80
2023-04-22T00:04:03.409Z,1.70
2023-04-22T00:04:14.442Z,1.50
2023-04-22T00:04:25.175Z,1.40
2023-04-22T00:04:36.078Z,1.60
2023-04-22T00:04:47.053Z,1.60
2023-04-22T00:04:57.917Z,1.60
2023-04-22T00:05:08.972Z,1.50
2023-04-22T00:05:20.664Z,1.50
2023-04-22T00:05:30.284Z,1.50
2023-04-22T00:05:41.111Z,1.60
2023-04-22T00:05:52.210Z,1.50
2023-04-22T00:06:03.177Z,1.60
2023-04-22T00:06:13.948Z,1.60
2023-04-22T00:06:25.012Z,1.70
2023-04-22T00:06:35.970Z,1.70
2023-04-22T00:06:46.742Z,1.70
2023-04-22T00:06:57.786Z,1.80
2023-04-22T00:07:08.769Z,1.60
2023-04-22T00:07:19.531Z,1.60
2023-04-22T00:07:30.572Z,1.60
2023-04-22T00:07:41.567Z,1.70
2023-04-22T00:07:52.445Z,1.80
2023-04-22T00:08:02.910Z,1.90
2023-04-22T00:08:13.872Z,1.80
2023-04-22T00:08:24.636Z,1.80
2023-04-22T00:08:35.696Z,1.80
2023-04-22T00:08:46.657Z,1.60
2023-04-22T00:08:57.423Z,1.60
2023-04-22T00:09:08.465Z,1.60
2023-04-22T00:09:19.437Z,1.80
2023-04-22T00:09:30.204Z,1.80
2023-04-22T00:09:41.251Z,1.80
2023-04-22T00:09:52.214Z,1.70
2023-04-22T00:10:02.988Z,1.90
2023-04-22T00:10:14.035Z,1.90
2023-04-22T00:10:24.996Z,1.90
2023-04-22T00:10:35.784Z,1.70
2023-04-22T00:10:46.823Z,1.60
2023-04-22T00:10:57.799Z,1.70
2023-04-22T00:11:08.583Z,1.70
2023-04-22T00:11:19.614Z,1.70
2023-04-22T00:11:30.584Z,1.40
2023-04-22T00:11:41.407Z,1.50
2023-04-22T00:11:51.920Z,1.70
2023-04-22T00:12:02.893Z,1.80
2023-04-22T00:12:13.678Z,1.70
2023-04-22T00:12:24.718Z,1.50
2023-04-22T00:12:35.676Z,1.50
2023-04-22T00:12:46.453Z,1.50
2023-04-22T00:12:57.497Z,1.60
2023-04-22T00:13:08.485Z,1.60
2023-04-22T00:13:19.229Z,1.60
2023-04-22T00:13:30.284Z,1.60
2023-04-22T00:13:41.258Z,1.50
2023-04-22T00:13:52.008Z,1.40
2023-04-22T00:14:03.051Z,1.50
2023-04-22T00:14:14.019Z,1.50
2023-04-22T00:14:24.794Z,1.50
2023-04-22T00:14:35.859Z,1.40
2023-04-22T00:14:46.816Z,1.30
2023-04-22T00:14:57.569Z,1.50
2023-04-22T00:15:08.610Z,1.60
2023-04-22T00:15:19.580Z,1.50
2023-04-22T00:15:30.346Z,1.40
2023-04-22T00:15:41.440Z,1.50
2023-04-22T00:15:52.396Z,1.60
2023-04-22T00:16:03.176Z,1.50
2023-04-22T00:16:14.259Z,1.60
2023-04-22T00:16:25.234Z,1.40
2023-04-22T00:16:36.050Z,1.50
2023-04-22T00:16:46.960Z,1.50
2023-04-22T00:16:57.415Z,1.60
2023-04-22T00:17:08.186Z,1.50
2023-04-22T00:17:19.292Z,1.60
2023-04-22T00:17:30.231Z,1.60
2023-04-22T00:17:41.033Z,1.70
2023-04-22T00:17:52.070Z,1.60
2023-04-22T00:18:03.040Z,1.50
2023-04-22T00:18:13.962Z,1.60
2023-04-22T00:18:24.636Z,1.90
2023-04-22T00:18:35.595Z,2.00
2023-04-22T00:18:46.370Z,2.00
2023-04-22T00:18:57.432Z,2.00
2023-04-22T00:19:08.426Z,2.00
2023-04-22T00:19:19.166Z,1.80
2023-04-22T00:19:30.222Z,1.80
2023-04-22T00:19:41.350Z,1.80
2023-04-22T00:19:52.246Z,1.80
2023-04-22T00:20:03.289Z,2.00
2023-04-22T00:20:14.256Z,2.00
2023-04-22T00:20:25.025Z,1.80
2023-04-22T00:20:36.083Z,1.90
2023-04-22T00:20:47.040Z,1.90
2023-04-22T00:20:57.806Z,1.90
2023-04-22T00:21:08.860Z,1.80
2023-04-22T00:21:19.825Z,1.70
2023-04-22T00:21:30.593Z,1.60
2023-04-22T00:21:41.664Z,1.60
2023-04-22T00:21:52.648Z,1.70
2023-04-22T00:22:03.406Z,1.80
2023-04-22T00:22:14.449Z,1.70
2023-04-22T00:22:25.431Z,1.40
2023-04-22T00:22:36.194Z,1.50
2023-04-22T00:22:47.271Z,1.50
2023-04-22T00:22:58.240Z,1.60
2023-04-22T00:23:08.992Z,1.60
2023-04-22T00:23:20.035Z,1.60
2023-04-22T00:23:31.004Z,1.50
2023-04-22T00:23:41.767Z,1.60
2023-04-22T00:23:52.828Z,1.70
2023-04-22T00:24:03.779Z,1.70
2023-04-22T00:24:14.541Z,1.60
2023-04-22T00:24:25.581Z,1.60
2023-04-22T00:24:36.551Z,1.60
2023-04-22T00:24:47.314Z,1.70
2023-04-22T00:24:58.365Z,1.60
2023-04-22T00:25:09.336Z,1.70
2023-04-22T00:25:20.091Z,1.60
2023-04-22T00:25:31.138Z,1.50
2023-04-22T00:25:42.115Z,1.60
2023-04-22T00:25:52.866Z,1.60
2023-04-22T00:26:03.919Z,1.70
2023-04-22T00:26:14.903Z,1.70
2023-04-22T00:26:25.655Z,1.70
2023-04-22T00:26:36.697Z,1.70
2023-04-22T00:26:47.668Z,1.70
2023-04-22T00:26:58.455Z,1.50
2023-04-22T00:27:09.518Z,1.50
2023-04-22T00:27:20.493Z,1.70
2023-04-22T00:27:31.281Z,1.80
2023-04-22T00:27:42.302Z,1.80
2023-04-22T00:27:53.268Z,1.80
2023-04-22T00:28:04.031Z,1.80
2023-04-22T00:28:15.076Z,1.90
2023-04-22T00:28:26.043Z,1.60
2023-04-22T00:28:36.809Z,1.60
2023-04-22T00:28:47.850Z,1.70
2023-04-22T00:28:58.820Z,1.80
2023-04-22T00:29:09.579Z,1.80
2023-04-22T00:29:20.635Z,1.80
2023-04-22T00:29:31.597Z,1.80
2023-04-22T00:29:42.369Z,1.70
2023-04-22T00:29:53.416Z,1.70
2023-04-22T00:30:04.379Z,1.50
2023-04-22T00:30:15.137Z,1.40
2023-04-22T00:30:26.200Z,1.70
2023-04-22T00:30:37.171Z,1.80
2023-04-22T00:30:47.944Z,1.70
2023-04-22T00:30:59.098Z,1.50
2023-04-22T00:31:09.614Z,1.40
2023-04-22T00:31:20.458Z,1.40
2023-04-22T00:31:31.050Z,1.60
2023-04-22T00:31:41.540Z,1.60
2023-04-22T00:31:52.382Z,1.60
2023-04-22T00:32:02.930Z,1.60
2023-04-22T00:32:13.897Z,1.60
2023-04-22T00:32:24.713Z,1.60
2023-04-22T00:32:35.749Z,1.40
2023-04-22T00:32:46.760Z,1.60
2023-04-22T00:32:57.569Z,1.60
2023-04-22T00:33:08.098Z,1.50
2023-04-22T00:33:19.069Z,1.60
2023-04-22T00:33:29.828Z,1.50
2023-04-22T00:33:40.872Z,1.60
2023-04-22T00:33:51.839Z,1.60
2023-04-22T00:34:02.611Z,1.60
2023-04-22T00:34:13.649Z,1.60
2023-04-22T00:34:24.616Z,1.60
2023-04-22T00:34:35.379Z,1.60
2023-04-22T00:34:46.426Z,1.60
2023-04-22T00:34:57.388Z,1.30
2023-04-22T00:35:08.161Z,1.40
2023-04-22T00:35:19.229Z,1.60
2023-04-22T00:35:30.178Z,1.70
2023-04-22T00:35:40.970Z,1.70
2023-04-22T00:35:51.993Z,1.70
2023-04-22T00:36:02.955Z,1.90
2023-04-22T00:36:13.735Z,1.80
2023-04-22T00:36:24.773Z,1.70
2023-04-22T00:36:35.737Z,1.70
2023-04-22T00:36:46.524Z,1.90
2023-04-22T00:36:57.559Z,1.70
2023-04-22T00:37:08.531Z,1.80
2023-04-22T00:37:19.312Z,1.70
2023-04-22T00:37:30.350Z,1.70
2023-04-22T00:37:41.339Z,1.60
2023-04-22T00:37:52.132Z,1.60
2023-04-22T00:38:03.158Z,1.40
2023-04-22T00:38:14.117Z,1.40
2023-04-22T00:38:24.901Z,1.40
2023-04-22T00:38:35.932Z,1.60
2023-04-22T00:38:46.905Z,1.60
2023-04-22T00:38:57.710Z,1.60
2023-04-22T00:39:08.712Z,1.50
2023-04-22T00:39:19.677Z,1.60
2023-04-22T00:39:30.447Z,1.60
2023-04-22T00:39:41.752Z,1.60
2023-04-22T00:39:52.441Z,1.50
2023-04-22T00:40:03.211Z,1.60
2023-04-22T00:40:14.252Z,1.60
2023-04-22T00:40:25.223Z,1.70
2023-04-22T00:40:35.994Z,1.70
2023-04-22T00:40:47.038Z,1.80
2023-04-22T00:40:57.996Z,1.70
2023-04-22T00:41:08.784Z,1.60
2023-04-22T00:41:19.828Z,1.60
2023-04-22T00:41:30.798Z,1.60
2023-04-22T00:41:41.562Z,1.80
2023-04-22T00:41:52.614Z,1.70
2023-04-22T00:42:03.577Z,1.60
2023-04-22T00:42:14.347Z,1.60
2023-04-22T00:42:25.409Z,1.80
2023-04-22T00:42:36.351Z,1.70
2023-04-22T00:42:47.283Z,1.80
2023-04-22T00:42:57.791Z,1.70
2023-04-22T00:43:08.759Z,1.70
2023-04-22T00:43:19.525Z,1.70
2023-04-22T00:43:30.581Z,1.60
2023-04-22T00:43:41.545Z,1.70
2023-04-22T00:43:52.312Z,1.50
2023-04-22T00:44:03.356Z,1.60
2023-04-22T00:44:14.316Z,1.60
2023-04-22T00:44:25.087Z,1.80
2023-04-22T00:44:36.130Z,1.60
2023-04-22T00:44:47.097Z,1.70
2023-04-22T00:44:57.863Z,1.70
2023-04-22T00:45:08.911Z,2.00
2023-04-22T00:45:19.870Z,1.80
2023-04-22T00:45:30.636Z,1.80
2023-04-22T00:45:41.684Z,1.70
2023-04-22T00:45:52.652Z,1.90
2023-04-22T00:46:03.414Z,1.80
2023-04-22T00:46:14.481Z,1.60
2023-04-22T00:46:25.462Z,1.80
2023-04-22T00:46:36.274Z,1.60
2023-04-22T00:46:46.766Z,1.70
2023-04-22T00:46:57.777Z,1.60
2023-04-22T00:47:08.709Z,1.60
2023-04-22T00:47:19.232Z,1.60
2023-04-22T00:47:30.218Z,1.50
2023-04-22T00:47:41.017Z,1.70
2023-04-22T00:47:52.109Z,1.70
2023-04-22T00:48:03.191Z,1.80
2023-04-22T00:48:14.003Z,1.50
2023-04-22T00:48:26.813Z,1.60
2023-04-22T00:48:35.322Z,1.70
2023-04-22T00:48:46.084Z,1.80
2023-04-22T00:48:57.132Z,1.70
2023-04-22T00:49:08.127Z,1.80
2023-04-22T00:49:18.864Z,1.90
2023-04-22T00:49:29.910Z,1.90
2023-04-22T00:49:41.331Z,1.90
2023-04-22T00:49:51.634Z,1.80
2023-04-22T00:50:02.678Z,1.90
2023-04-22T00:50:13.653Z,1.90
2023-04-22T00:50:24.409Z,1.90
2023-04-22T00:50:35.456Z,1.70
2023-04-22T00:50:46.426Z,1.80
2023-04-22T00:50:57.196Z,1.90
2023-04-22T00:51:08.240Z,1.90
2023-04-22T00:51:19.206Z,1.80
2023-04-22T00:51:29.971Z,1.80
2023-04-22T00:51:41.028Z,1.70
2023-04-22T00:51:51.999Z,1.90
2023-04-22T00:52:02.771Z,1.90
2023-04-22T00:52:13.817Z,1.80
2023-04-22T00:52:24.788Z,1.90
2023-04-22T00:52:35.619Z,2.00
2023-04-22T00:52:46.655Z,1.90
2023-04-22T00:52:57.636Z,1.70
2023-04-22T00:53:08.400Z,1.80
2023-04-22T00:53:19.421Z,1.90
2023-04-22T00:53:30.390Z,1.80
2023-04-22T00:53:41.153Z,1.90
2023-04-22T00:53:52.197Z,1.90
2023-04-22T00:54:03.172Z,2.00
2023-04-22T00:54:13.931Z,1.90
2023-04-22T00:54:24.978Z,2.00
2023-04-22T00:54:35.953Z,2.00
2023-04-22T00:54:46.728Z,1.80
2023-04-22T00:54:57.770Z,1.80
2023-04-22T00:55:08.730Z,1.80
2023-04-22T00:55:19.500Z,1.80
2023-04-22T00:55:30.550Z,1.90
2023-04-22T00:55:41.520Z,1.90
2023-04-22T00:55:52.285Z,1.90
2023-04-22T00:56:03.327Z,1.70
2023-04-22T00:56:14.297Z,1.70
2023-04-22T00:56:25.065Z,1.80
2023-04-22T00:56:36.111Z,2.00
2023-04-22T00:56:47.072Z,2.00
2023-04-22T00:56:57.850Z,2.20
2023-04-22T00:57:08.891Z,2.00
2023-04-22T00:57:19.848Z,2.00
2023-04-22T00:57:30.626Z,1.80
2023-04-22T00:57:41.671Z,2.00
2023-04-22T00:57:52.658Z,2.00
2023-04-22T00:58:03.415Z,2.10
2023-04-22T00:58:14.466Z,2.00
2023-04-22T00:58:25.426Z,1.90
2023-04-22T00:58:36.196Z,1.90
2023-04-22T00:58:47.240Z,1.70
2023-04-22T00:58:58.202Z,1.90
2023-04-22T00:59:08.983Z,1.80
2023-04-22T00:59:20.021Z,1.90
2023-04-22T00:59:30.978Z,2.00
2023-04-22T00:59:42.017Z,2.10
2023-04-22T00:59:52.610Z,1.90
2023-04-22T01:00:03.580Z,2.00
2023-04-22T01:00:14.342Z,2.00
2023-04-22T01:00:25.384Z,1.90
2023-04-22T01:00:36.374Z,1.70
2023-04-22T01:00:47.122Z,1.70
2023-04-22T01:00:58.185Z,1.70
2023-04-22T01:01:09.156Z,1.80
2023-04-22T01:01:19.980Z,1.70
2023-04-22T01:01:30.604Z,1.80
2023-04-22T01:01:41.158Z,1.70
2023-04-22T01:01:51.962Z,1.70
2023-04-22T01:02:03.043Z,1.70
2023-04-22T01:02:14.092Z,1.80
2023-04-22T01:02:24.961Z,1.80
2023-04-22T01:02:35.701Z,1.90
2023-04-22T01:02:46.289Z,2.10
2023-04-22T01:02:57.181Z,2.00
2023-04-22T01:03:07.859Z,2.10
2023-04-22T01:03:18.566Z,2.00
2023-04-22T01:03:29.504Z,2.10
2023-04-22T01:03:40.208Z,2.10
2023-04-22T01:03:50.883Z,2.10
2023-04-22T01:04:01.960Z,2.20
2023-04-22T01:04:12.777Z,2.20
2023-04-22T01:04:23.235Z,2.10
2023-04-22T01:04:33.993Z,2.20
2023-04-22T01:04:45.014Z,2.10
2023-04-22T01:04:55.997Z,2.20
2023-04-22T01:05:06.762Z,2.10
2023-04-22T01:05:17.820Z,2.20
2023-04-22T01:05:28.799Z,2.30
2023-04-22T01:05:39.582Z,2.30
2023-04-22T01:05:50.614Z,2.20
2023-04-22T01:06:01.614Z,2.50
2023-04-22T01:06:12.347Z,2.70
2023-04-22T01:06:23.395Z,2.80
2023-04-22T01:06:34.362Z,2.70
2023-04-22T01:06:45.124Z,2.50
2023-04-22T01:06:56.204Z,2.30
2023-04-22T01:07:07.139Z,2.30
2023-04-22T01:07:17.907Z,2.20
2023-04-22T01:07:28.954Z,2.20
2023-04-22T01:07:39.931Z,2.10
2023-04-22T01:07:50.695Z,2.20
2023-04-22T01:08:01.771Z,2.20
2023-04-22T01:08:12.726Z,2.00
2023-04-22T01:08:23.486Z,2.20
2023-04-22T01:08:34.535Z,2.20
2023-04-22T01:08:45.495Z,2.30
2023-04-22T01:08:56.265Z,2.20
2023-04-22T01:09:07.323Z,2.20
2023-04-22T01:09:18.279Z,2.20
2023-04-22T01:09:29.054Z,2.00
2023-04-22T01:09:40.353Z,1.90
2023-04-22T01:09:51.107Z,1.90
2023-04-22T01:10:01.859Z,2.20
2023-04-22T01:10:12.898Z,2.50
2023-04-22T01:10:23.868Z,2.30
2023-04-22T01:10:34.638Z,2.40
2023-04-22T01:10:45.678Z,2.10
2023-04-22T01:10:56.654Z,2.10
2023-04-22T01:11:07.434Z,2.00
2023-04-22T01:11:18.483Z,2.20
2023-04-22T01:11:29.450Z,2.40
2023-04-22T01:11:40.223Z,2.30
2023-04-22T01:11:51.265Z,2.40
2023-04-22T01:12:02.236Z,2.20
2023-04-22T01:12:13.000Z,2.10
2023-04-22T01:12:24.045Z,2.10
2023-04-22T01:12:35.026Z,2.10
2023-04-22T01:12:45.806Z,2.00
2023-04-22T01:12:56.897Z,2.00
2023-04-22T01:13:07.828Z,2.10
2023-04-22T01:13:18.616Z,2.20
2023-04-22T01:13:29.660Z,2.30
2023-04-22T01:13:40.626Z,2.20
2023-04-22T01:13:51.380Z,2.40
2023-04-22T01:14:02.446Z,2.20
2023-04-22T01:14:13.406Z,2.10
2023-04-22T01:14:24.169Z,2.10
2023-04-22T01:14:35.217Z,2.10
2023-04-22T01:14:46.188Z,2.20
2023-04-22T01:14:56.958Z,2.10
2023-04-22T01:15:08.002Z,2.00
2023-04-22T01:15:18.974Z,2.00
2023-04-22T01:15:29.764Z,2.00
2023-04-22T01:15:40.782Z,2.00
2023-04-22T01:15:51.754Z,2.00
2023-04-22T01:16:02.511Z,1.90
2023-04-22T01:16:13.691Z,1.90
2023-04-22T01:16:24.121Z,1.80
2023-04-22T01:16:34.885Z,1.90
2023-04-22T01:16:45.958Z,1.90
2023-04-22T01:16:56.940Z,1.90
2023-04-22T01:17:07.718Z,2.00
2023-04-22T01:17:18.728Z,2.00
2023-04-22T01:17:29.734Z,1.90
2023-04-22T01:17:40.518Z,1.90
2023-04-22T01:17:51.069Z,1.70
2023-04-22T01:18:02.027Z,2.00
2023-04-22T01:18:12.773Z,2.10
2023-04-22T01:18:23.854Z,2.20
2023-04-22T01:18:34.807Z,2.00
2023-04-22T01:18:45.571Z,2.10
2023-04-22T01:18:56.610Z,2.00
2023-04-22T01:19:07.580Z,2.10
2023-04-22T01:19:18.345Z,2.00
2023-04-22T01:19:29.386Z,2.00
2023-04-22T01:19:40.750Z,2.10
2023-04-22T01:19:51.156Z,2.10
2023-04-22T01:20:02.193Z,2.30
2023-04-22T01:20:13.157Z,2.10
2023-04-22T01:20:23.930Z,1.90
2023-04-22T01:20:34.973Z,1.90
2023-04-22T01:20:45.955Z,1.90
2023-04-22T01:20:56.710Z,1.80
2023-04-22T01:21:07.754Z,1.80
2023-04-22T01:21:18.735Z,1.90
2023-04-22T01:21:29.486Z,2.00
2023-04-22T01:21:40.530Z,2.10
2023-04-22T01:21:51.492Z,2.00
2023-04-22T01:22:02.279Z,2.10
2023-04-22T01:22:13.343Z,2.00
2023-04-22T01:22:24.290Z,2.00
2023-04-22T01:22:35.061Z,1.90
2023-04-22T01:22:46.122Z,2.00
2023-04-22T01:22:57.084Z,2.00
2023-04-22T01:23:07.871Z,2.10
2023-04-22T01:23:18.902Z,2.20
2023-04-22T01:23:29.895Z,2.30
2023-04-22T01:23:40.649Z,2.20
2023-04-22T01:23:51.693Z,2.10
2023-04-22T01:24:02.687Z,2.00
2023-04-22T01:24:13.422Z,2.00
2023-04-22T01:24:24.479Z,2.10
2023-04-22T01:24:35.441Z,2.00
2023-04-22T01:24:46.233Z,2.00
2023-04-22T01:24:57.272Z,1.90
2023-04-22T01:25:08.227Z,2.00
2023-04-22T01:25:19.001Z,1.90
2023-04-22T01:25:30.050Z,2.10
2023-04-22T01:25:41.026Z,2.20
2023-04-22T01:25:51.771Z,2.30
2023-04-22T01:26:02.837Z,2.30
2023-04-22T01:26:13.786Z,2.20
2023-04-22T01:26:24.548Z,2.30
2023-04-22T01:26:35.599Z,2.40
2023-04-22T01:26:46.566Z,2.20
2023-04-22T01:26:57.343Z,2.00
2023-04-22T01:27:08.386Z,1.90
2023-04-22T01:27:19.350Z,1.90
2023-04-22T01:27:30.116Z,1.90
2023-04-22T01:27:41.162Z,1.80
2023-04-22T01:27:52.129Z,2.00
2023-04-22T01:28:02.915Z,2.10
2023-04-22T01:28:13.954Z,2.10
2023-04-22T01:28:24.921Z,2.00
2023-04-22T01:28:35.698Z,2.00
2023-04-22T01:28:46.745Z,2.00
2023-04-22T01:28:57.714Z,1.90
2023-04-22T01:29:08.520Z,2.20
2023-04-22T01:29:19.536Z,2.00
2023-04-22T01:29:30.501Z,2.00
2023-04-22T01:29:41.547Z,2.00
2023-04-22T01:29:52.311Z,2.10
2023-04-22T01:30:03.270Z,2.10
2023-04-22T01:30:14.041Z,2.10
2023-04-22T01:30:25.094Z,2.20
2023-04-22T01:30:36.058Z,2.10
2023-04-22T01:30:46.826Z,2.10
2023-04-22T01:30:57.860Z,2.30
2023-04-22T01:31:08.826Z,2.20
2023-04-22T01:31:19.597Z,2.20
2023-04-22T01:31:30.668Z,2.20
2023-04-22T01:31:41.687Z,2.30
2023-04-22T01:31:52.474Z,2.30
2023-04-22T01:32:03.561Z,2.50
2023-04-22T01:32:14.564Z,2.20
2023-04-22T01:32:25.465Z,2.00
2023-04-22T01:32:36.032Z,2.10
2023-04-22T01:32:46.999Z,2.10
2023-04-22T01:32:57.787Z,2.30
2023-04-22T01:33:08.318Z,2.20
2023-04-22T01:33:19.265Z,2.10
2023-04-22T01:33:30.018Z,2.10
2023-04-22T01:33:41.072Z,2.20
2023-04-22T01:33:52.032Z,2.20
2023-04-22T01:34:02.803Z,2.20
2023-04-22T01:34:13.848Z,2.10
2023-04-22T01:34:24.815Z,2.10
2023-04-22T01:34:35.608Z,2.10
2023-04-22T01:34:46.632Z,2.20
2023-04-22T01:34:57.596Z,2.10
2023-04-22T01:35:08.361Z,2.00
2023-04-22T01:35:19.405Z,2.10
2023-04-22T01:35:30.374Z,2.20
2023-04-22T01:35:41.141Z,2.20
2023-04-22T01:35:52.183Z,2.10
2023-04-22T01:36:03.148Z,2.10
2023-04-22T01:36:13.924Z,2.20
2023-04-22T01:36:24.980Z,2.30
2023-04-22T01:36:35.942Z,2.40
2023-04-22T01:36:46.715Z,2.30
2023-04-22T01:36:57.764Z,2.30
2023-04-22T01:37:08.741Z,2.10
2023-04-22T01:37:19.506Z,2.10
2023-04-22T01:37:30.551Z,2.20
2023-04-22T01:37:41.520Z,2.30
2023-04-22T01:37:52.290Z,2.20
2023-04-22T01:38:03.344Z,2.00
2023-04-22T01:38:14.343Z,2.00
2023-04-22T01:38:25.093Z,1.90
2023-04-22T01:38:36.130Z,2.00
2023-04-22T01:38:47.110Z,2.00
2023-04-22T01:38:57.873Z,2.20
2023-04-22T01:39:08.919Z,2.20
2023-04-22T01:39:19.885Z,2.20
2023-04-22T01:39:30.659Z,2.10
2023-04-22T01:39:42.046Z,2.20
2023-04-22T01:39:52.548Z,2.10
2023-04-22T01:40:03.363Z,1.90
2023-04-22T01:40:14.366Z,1.80
2023-04-22T01:40:25.347Z,1.90
2023-04-22T01:40:36.101Z,2.10
2023-04-22T01:40:47.146Z,2.30
2023-04-22T01:40:58.112Z,2.20
2023-04-22T01:41:08.885Z,2.30
2023-04-22T01:41:19.927Z,2.30
2023-04-22T01:41:30.897Z,2.40
2023-04-22T01:41:41.668Z,2.30
2023-04-22T01:41:52.722Z,2.30
2023-04-22T01:42:03.699Z,2.20
2023-04-22T01:42:14.448Z,2.10
2023-04-22T01:42:25.519Z,2.10
2023-04-22T01:42:36.490Z,2.00
2023-04-22T01:42:47.244Z,2.20
2023-04-22T01:42:58.293Z,2.10
2023-04-22T01:43:09.258Z,2.10
2023-04-22T01:43:20.038Z,2.00
2023-04-22T01:43:31.088Z,2.00
2023-04-22T01:43:42.052Z,2.00
2023-04-22T01:43:52.823Z,2.00
2023-04-22T01:44:03.869Z,2.10
2023-04-22T01:44:14.834Z,2.20
2023-04-22T01:44:25.605Z,2.20
2023-04-22T01:44:36.648Z,2.00
2023-04-22T01:44:47.615Z,2.00
2023-04-22T01:44:58.383Z,1.90
2023-04-22T01:45:09.439Z,2.00
2023-04-22T01:45:20.394Z,2.20
2023-04-22T01:45:31.158Z,2.30
2023-04-22T01:45:42.213Z,2.30
2023-04-22T01:45:53.207Z,2.50
2023-04-22T01:46:04.027Z,2.50
2023-04-22T01:46:14.578Z,2.20
2023-04-22T01:46:25.600Z,2.20
2023-04-22T01:46:36.375Z,2.20
2023-04-22T01:46:46.883Z,2.30
2023-04-22T01:46:57.836Z,2.20
2023-04-22T01:47:08.607Z,2.00
2023-04-22T01:47:19.653Z,2.00
2023-04-22T01:47:30.643Z,2.10
2023-04-22T01:47:41.470Z,2.30
2023-04-22T01:47:52.043Z,2.40
2023-04-22T01:48:03.012Z,2.50
2023-04-22T01:48:13.852Z,2.30
2023-04-22T01:48:24.321Z,2.20
2023-04-22T01:48:35.288Z,2.40
2023-04-22T01:48:46.070Z,2.40
2023-04-22T01:48:57.121Z,2.70
2023-04-22T01:49:08.104Z,2.30
2023-04-22T01:49:18.858Z,2.30
2023-04-22T01:49:29.909Z,2.10
2023-04-22T01:49:41.270Z,2.10
2023-04-22T01:49:51.792Z,2.00
2023-04-22T01:50:02.844Z,2.30
2023-04-22T01:50:13.792Z,2.30
2023-04-22T01:50:24.564Z,2.40
2023-04-22T01:50:35.630Z,2.10
2023-04-22T01:50:46.579Z,2.00
2023-04-22T01:50:57.346Z,2.10
2023-04-22T01:51:08.393Z,2.30
2023-04-22T01:51:19.449Z,2.30
2023-04-22T01:51:30.282Z,2.30
2023-04-22T01:51:41.326Z,2.10
2023-04-22T01:51:52.298Z,2.00
2023-04-22T01:52:03.078Z,2.10
2023-04-22T01:52:14.110Z,2.00
2023-04-22T01:52:25.073Z,2.20
2023-04-22T01:52:35.839Z,2.20
2023-04-22T01:52:46.904Z,2.20
2023-04-22T01:52:57.879Z,2.10
2023-04-22T01:53:08.650Z,2.30
2023-04-22T01:53:19.719Z,2.10
2023-04-22T01:53:30.680Z,2.20
2023-04-22T01:53:41.446Z,2.30
2023-04-22T01:53:52.494Z,2.30
2023-04-22T01:54:03.471Z,2.10
2023-04-22T01:54:14.235Z,2.00
2023-04-22T01:54:25.278Z,2.00
2023-04-22T01:54:36.239Z,2.20
2023-04-22T01:54:47.015Z,2.10
2023-04-22T01:54:58.054Z,1.90
2023-04-22T01:55:09.031Z,2.00
2023-04-22T01:55:19.798Z,2.00
2023-04-22T01:55:30.845Z,2.00
2023-04-22T01:55:41.799Z,2.20
2023-04-22T01:55:52.569Z,2.30
2023-04-22T01:56:03.620Z,2.30
2023-04-22T01:56:14.586Z,2.30
2023-04-22T01:56:25.366Z,2.40
2023-04-22T01:56:36.415Z,2.30
2023-04-22T01:56:47.375Z,2.40
2023-04-22T01:56:58.140Z,2.40
2023-04-22T01:57:09.186Z,2.20
2023-04-22T01:57:20.153Z,2.20
2023-04-22T01:57:30.923Z,2.10
2023-04-22T01:57:41.986Z,2.20
2023-04-22T01:57:52.935Z,2.10
2023-04-22T01:58:03.696Z,2.10
2023-04-22T01:58:14.325Z,2.20
2023-04-22T01:58:25.290Z,2.10
2023-04-22T01:58:36.163Z,2.30
2023-04-22T01:58:47.215Z,2.30
2023-04-22T01:58:58.173Z,2.50
2023-04-22T01:59:08.958Z,2.40
2023-04-22T01:59:20.004Z,2.20
2023-04-22T01:59:30.971Z,1.90
2023-04-22T01:59:42.087Z,2.00
2023-04-22T01:59:52.775Z,2.10
2023-04-22T02:00:03.741Z,2.20
2023-04-22T02:00:14.508Z,2.20
2023-04-22T02:00:25.563Z,2.20
2023-04-22T02:00:36.525Z,2.30
2023-04-22T02:00:47.316Z,2.30
2023-04-22T02:00:58.413Z,2.30
2023-04-22T02:01:09.372Z,2.20
2023-04-22T02:01:20.149Z,2.20
2023-04-22T02:01:30.719Z,2.10
2023-04-22T02:01:41.783Z,2.30
2023-04-22T02:01:52.777Z,2.20
2023-04-22T02:02:03.335Z,2.40
2023-04-22T02:02:14.331Z,2.30
2023-04-22T02:02:25.162Z,2.30
2023-04-22T02:02:35.727Z,2.10
2023-04-22T02:02:46.743Z,2.20
2023-04-22T02:02:57.502Z,2.20
2023-04-22T02:03:08.157Z,2.30
2023-04-22T02:03:19.122Z,2.30
2023-04-22T02:03:29.963Z,2.40
2023-04-22T02:03:40.653Z,2.40
2023-04-22T02:03:51.781Z,2.20
2023-04-22T02:04:02.613Z,2.20
2023-04-22T02:04:13.667Z,2.20
2023-04-22T02:04:24.632Z,2.10
2023-04-22T02:04:35.463Z,2.00
2023-04-22T02:04:46.025Z,2.10
2023-04-22T02:04:57.000Z,2.20
2023-04-22T02:05:07.827Z,2.30
2023-04-22T02:05:18.351Z,2.20
2023-04-22T02:05:29.304Z,2.00
2023-04-22T02:05:40.070Z,1.90
2023-04-22T02:05:51.121Z,2.10
2023-04-22T02:06:02.099Z,2.20
2023-04-22T02:06:12.873Z,2.20
2023-04-22T02:06:23.899Z,2.20
2023-04-22T02:06:34.863Z,2.10
2023-04-22T02:06:45.634Z,2.00
2023-04-22T02:06:56.672Z,2.30
2023-04-22T02:07:07.636Z,2.40
2023-04-22T02:07:18.402Z,2.30
2023-04-22T02:07:29.443Z,2.00
2023-04-22T02:07:40.429Z,2.10
2023-04-22T02:07:51.175Z,2.20
2023-04-22T02:08:02.241Z,2.30
2023-04-22T02:08:13.190Z,2.00
2023-04-22T02:08:23.985Z,2.10
2023-04-22T02:08:35.002Z,2.10
2023-04-22T02:08:45.982Z,2.00
2023-04-22T02:08:56.765Z,1.90
2023-04-22T02:09:07.797Z,2.00
2023-04-22T02:09:18.777Z,2.20
2023-04-22T02:09:29.542Z,2.10
2023-04-22T02:09:40.872Z,2.00
2023-04-22T02:09:51.613Z,2.20
2023-04-22T02:10:02.377Z,2.40
2023-04-22T02:10:13.424Z,2.60
2023-04-22T02:10:24.388Z,2.50
2023-04-22T02:10:35.159Z,2.40
2023-04-22T02:10:46.198Z,2.10
2023-04-22T02:10:57.163Z,2.00
2023-04-22T02:11:07.941Z,1.90
2023-04-22T02:11:18.987Z,2.00
2023-04-22T02:11:29.957Z,2.10
2023-04-22T02:11:40.716Z,2.20
2023-04-22T02:11:51.768Z,2.00
2023-04-22T02:12:02.744Z,2.10
2023-04-22T02:12:13.513Z,2.10
2023-04-22T02:12:24.556Z,2.40
2023-04-22T02:12:35.524Z,2.20
2023-04-22T02:12:46.300Z,2.20
2023-04-22T02:12:57.334Z,2.10
2023-04-22T02:13:08.304Z,2.40
2023-04-22T02:13:19.065Z,2.40
2023-04-22T02:13:30.110Z,2.30
2023-04-22T02:13:41.118Z,2.10
2023-04-22T02:13:51.870Z,2.20
2023-04-22T02:14:02.914Z,2.30
2023-04-22T02:14:13.875Z,2.30
2023-04-22T02:14:24.650Z,2.30
2023-04-22T02:14:35.704Z,2.10
2023-04-22T02:14:46.677Z,2.20
2023-04-22T02:14:57.436Z,2.30
2023-04-22T02:15:08.484Z,2.20
2023-04-22T02:15:19.446Z,2.10
2023-04-22T02:15:30.254Z,2.10
2023-04-22T02:15:41.349Z,2.30
2023-04-22T02:15:52.369Z,2.60
2023-04-22T02:16:03.152Z,2.50
2023-04-22T02:16:14.232Z,2.30
2023-04-22T02:16:25.299Z,2.30
2023-04-22T02:16:36.153Z,2.40
2023-04-22T02:16:47.188Z,2.30
2023-04-22T02:16:58.148Z,2.10
2023-04-22T02:17:08.917Z,2.10
2023-04-22T02:17:19.975Z,2.20
2023-04-22T02:17:30.932Z,2.20
2023-04-22T02:17:41.703Z,2.20
2023-04-22T02:17:52.753Z,2.20
2023-04-22T02:18:03.725Z,2.30
2023-04-22T02:18:14.488Z,2.40
2023-04-22T02:18:25.539Z,2.40
2023-04-22T02:18:36.499Z,2.20
2023-04-22T02:18:47.280Z,2.20
2023-04-22T02:18:58.353Z,2.20
2023-04-22T02:19:09.329Z,2.30
2023-04-22T02:19:20.096Z,2.20
2023-04-22T02:19:31.195Z,2.20
2023-04-22T02:19:42.463Z,2.20
2023-04-22T02:19:52.995Z,2.30
2023-04-22T02:20:03.594Z,2.30
2023-04-22T02:20:14.575Z,2.30
2023-04-22T02:20:25.320Z,2.30
2023-04-22T02:20:36.378Z,2.30
2023-04-22T02:20:47.344Z,2.40
2023-04-22T02:20:58.108Z,2.50
2023-04-22T02:21:09.156Z,2.20
2023-04-22T02:21:20.119Z,2.00
2023-04-22T02:21:30.886Z,2.00
2023-04-22T02:21:41.944Z,2.00
2023-04-22T02:21:52.898Z,2.00
2023-04-22T02:22:03.666Z,2.00
2023-04-22T02:22:14.716Z,2.10
2023-04-22T02:22:25.678Z,2.10
2023-04-22T02:22:36.438Z,2.10
2023-04-22T02:22:47.487Z,2.20
2023-04-22T02:22:58.456Z,2.20
2023-04-22T02:23:09.222Z,2.30
2023-04-22T02:23:20.263Z,2.10
2023-04-22T02:23:31.248Z,2.10
2023-04-22T02:23:41.994Z,2.00
2023-04-22T02:23:53.038Z,2.10
2023-04-22T02:24:04.027Z,2.10
2023-04-22T02:24:14.786Z,2.30
2023-04-22T02:24:25.842Z,2.30
2023-04-22T02:24:36.825Z,2.30
2023-04-22T02:24:47.588Z,2.30
2023-04-22T02:24:58.649Z,2.20
2023-04-22T02:25:09.611Z,2.10